createdAt,value
2018-11-05T00:02:19.867Z,11.40
2018-11-05T00:04:46.792Z,11.30
2018-11-05T00:07:13.759Z,11.30
2018-11-05T00:09:40.771Z,11.20
2018-11-05T00:12:07.755Z,11.10
2018-11-05T00:14:34.777Z,11.10
2018-11-05T00:17:01.734Z,11.00
2018-11-05T00:19:28.671Z,11.00
2018-11-05T00:21:55.657Z,11.00
2018-11-05T00:24:22.573Z,11.00
2018-11-05T00:26:49.502Z,11.00
2018-11-05T00:29:16.463Z,11.00
2018-11-05T00:31:43.741Z,11.00
2018-11-05T00:34:10.662Z,11.00
2018-11-05T00:36:37.603Z,11.00
2018-11-05T00:39:06.956Z,10.80
2018-11-05T00:41:33.907Z,10.70
2018-11-05T00:44:00.831Z,10.60
2018-11-05T00:46:27.797Z,10.60
2018-11-05T00:48:54.720Z,10.50
2018-11-05T00:51:21.657Z,10.50
2018-11-05T00:53:48.582Z,10.40
2018-11-05T00:56:15.514Z,10.40
2018-11-05T00:58:42.521Z,10.40
2018-11-05T01:01:09.471Z,10.40
2018-11-05T01:03:36.406Z,10.30
2018-11-05T01:06:03.453Z,10.20
2018-11-05T01:08:30.374Z,10.30
2018-11-05T01:10:57.314Z,10.30
2018-11-05T01:13:24.270Z,10.20
2018-11-05T01:15:51.210Z,10.20
2018-11-05T01:18:18.155Z,10.20
2018-11-05T01:20:45.161Z,10.10
2018-11-05T01:23:12.078Z,10.10
2018-11-05T01:25:39.018Z,10.00
2018-11-05T01:28:05.970Z,10.10
2018-11-05T01:30:32.906Z,10.00
2018-11-05T01:33:00.389Z,10.00
2018-11-05T01:35:27.350Z,10.00
2018-11-05T01:37:54.274Z,9.90
2018-11-05T01:40:21.214Z,10.00
2018-11-05T01:42:48.166Z,9.90
2018-11-05T01:45:15.149Z,10.00
2018-11-05T01:47:42.505Z,10.00
2018-11-05T01:50:11.418Z,10.00
2018-11-05T01:52:38.367Z,9.90
2018-11-05T01:55:05.662Z,9.90
2018-11-05T01:57:32.621Z,9.90
2018-11-05T01:59:59.569Z,9.80
2018-11-05T02:02:26.549Z,9.80
2018-11-05T02:04:53.510Z,9.70
2018-11-05T02:07:20.545Z,9.70
2018-11-05T02:09:47.489Z,9.70
2018-11-05T02:12:14.451Z,9.70
2018-11-05T02:14:41.388Z,9.80
2018-11-05T02:17:08.377Z,9.70
2018-11-05T02:19:35.356Z,9.70
2018-11-05T02:22:02.309Z,9.70
2018-11-05T02:24:29.249Z,9.70
2018-11-05T02:26:56.253Z,9.70
2018-11-05T02:29:23.141Z,9.70
2018-11-05T02:31:50.097Z,9.60
2018-11-05T02:34:17.374Z,9.70
2018-11-05T02:36:44.300Z,9.70
2018-11-05T02:39:11.239Z,9.60
2018-11-05T02:41:38.229Z,9.60
2018-11-05T02:44:05.212Z,9.60
2018-11-05T02:46:32.149Z,9.50
2018-11-05T02:48:59.108Z,9.50
2018-11-05T02:51:26.062Z,9.50
2018-11-05T02:53:53.007Z,9.50
2018-11-05T02:56:19.965Z,9.50
2018-11-05T02:58:46.913Z,9.50
2018-11-05T03:01:13.853Z,9.60
2018-11-05T03:03:40.824Z,9.60
2018-11-05T03:06:07.758Z,9.70
2018-11-05T03:08:34.704Z,9.70
2018-11-05T03:11:01.667Z,9.80
2018-11-05T03:13:28.612Z,9.80
2018-11-05T03:15:55.550Z,9.90
2018-11-05T03:18:22.520Z,10.00
2018-11-05T03:20:49.445Z,10.00
2018-11-05T03:23:16.382Z,9.90
2018-11-05T03:25:43.357Z,9.90
2018-11-05T03:28:10.322Z,9.80
2018-11-05T03:30:37.250Z,9.70
2018-11-05T03:33:04.382Z,9.70
2018-11-05T03:35:31.518Z,9.60
2018-11-05T03:37:58.421Z,9.60
2018-11-05T03:40:25.375Z,9.50
2018-11-05T03:42:52.319Z,9.40
2018-11-05T03:45:19.239Z,9.40
2018-11-05T03:47:46.182Z,9.30
2018-11-05T03:50:14.505Z,9.30
2018-11-05T03:52:42.066Z,9.20
2018-11-05T03:55:09.143Z,9.20
2018-11-05T03:57:36.161Z,9.20
2018-11-05T04:00:04.121Z,9.10
2018-11-05T04:02:31.081Z,9.10
2018-11-05T04:04:58.013Z,9.10
2018-11-05T04:07:24.953Z,9.00
2018-11-05T04:09:51.910Z,9.00
2018-11-05T04:12:18.849Z,9.00
2018-11-05T04:14:45.776Z,9.10
2018-11-05T04:17:12.735Z,9.10
2018-11-05T04:19:39.744Z,9.10
2018-11-05T04:22:06.695Z,9.00
2018-11-05T04:24:33.659Z,9.00
2018-11-05T04:27:00.617Z,9.00
2018-11-05T04:29:27.564Z,9.00
2018-11-05T04:31:54.533Z,9.00
2018-11-05T04:34:21.480Z,8.90
2018-11-05T04:36:48.725Z,9.00
2018-11-05T04:39:16.117Z,9.00
2018-11-05T04:41:43.055Z,8.90
2018-11-05T04:44:10.119Z,8.90
2018-11-05T04:46:37.688Z,8.80
2018-11-05T04:49:04.658Z,8.70
2018-11-05T04:51:31.730Z,8.70
2018-11-05T04:53:58.691Z,8.70
2018-11-05T04:56:25.674Z,8.70
2018-11-05T04:58:52.602Z,8.70
2018-11-05T05:01:19.591Z,8.70
2018-11-05T05:03:46.538Z,8.70
2018-11-05T05:06:13.477Z,8.70
2018-11-05T05:08:40.450Z,8.70
2018-11-05T05:11:07.380Z,8.60
2018-11-05T05:13:34.330Z,8.70
2018-11-05T05:16:01.409Z,8.60
2018-11-05T05:18:28.326Z,8.60
2018-11-05T05:20:55.282Z,8.60
2018-11-05T05:23:22.262Z,8.60
2018-11-05T05:25:49.206Z,8.60
2018-11-05T05:28:16.134Z,8.60
2018-11-05T05:30:43.073Z,8.50
2018-11-05T05:33:10.089Z,8.60
2018-11-05T05:35:36.962Z,8.60
2018-11-05T05:38:04.490Z,8.60
2018-11-05T05:40:31.647Z,8.60
2018-11-05T05:42:58.532Z,8.50
2018-11-05T05:45:25.478Z,8.40
2018-11-05T05:47:52.412Z,8.40
2018-11-05T05:50:19.439Z,8.30
2018-11-05T05:52:47.820Z,8.40
2018-11-05T05:55:14.883Z,8.40
2018-11-05T05:57:42.211Z,8.40
2018-11-05T06:00:11.423Z,8.30
2018-11-05T06:02:38.562Z,8.20
2018-11-05T06:05:06.320Z,8.20
2018-11-05T06:07:33.287Z,8.20
2018-11-05T06:10:00.221Z,8.20
2018-11-05T06:12:27.171Z,8.20
2018-11-05T06:14:54.122Z,8.10
2018-11-05T06:17:21.099Z,8.20
2018-11-05T06:19:48.041Z,8.20
2018-11-05T06:22:14.993Z,8.20
2018-11-05T06:24:41.938Z,8.20
2018-11-05T06:27:08.899Z,8.20
2018-11-05T06:29:35.935Z,8.20
2018-11-05T06:32:02.892Z,8.20
2018-11-05T06:34:29.848Z,8.20
2018-11-05T06:36:56.784Z,8.10
2018-11-05T06:39:24.169Z,8.20
2018-11-05T06:41:51.187Z,8.20
2018-11-05T06:44:18.134Z,8.30
2018-11-05T06:46:45.011Z,8.30
2018-11-05T06:49:11.962Z,8.30
2018-11-05T06:51:38.922Z,8.30
2018-11-05T06:54:05.874Z,8.30
2018-11-05T06:56:33.245Z,8.30
2018-11-05T06:59:00.195Z,8.30
2018-11-05T07:01:27.959Z,8.40
2018-11-05T07:03:54.923Z,8.40
2018-11-05T07:06:21.891Z,8.40
2018-11-05T07:08:48.827Z,8.50
2018-11-05T07:11:15.844Z,8.70
2018-11-05T07:13:42.767Z,8.80
2018-11-05T07:16:09.721Z,8.80
2018-11-05T07:18:36.711Z,8.90
2018-11-05T07:21:03.607Z,8.80
2018-11-05T07:23:30.692Z,8.70
2018-11-05T07:25:57.621Z,8.80
2018-11-05T07:28:24.632Z,8.80
2018-11-05T07:30:51.580Z,8.80
2018-11-05T07:33:18.577Z,8.80
2018-11-05T07:35:45.494Z,8.80
2018-11-05T07:38:12.450Z,8.90
2018-11-05T07:40:39.735Z,8.90
2018-11-05T07:43:06.692Z,8.90
2018-11-05T07:45:33.624Z,9.00
2018-11-05T07:48:00.562Z,9.10
2018-11-05T07:50:27.698Z,9.20
2018-11-05T07:52:54.515Z,9.40
2018-11-05T07:55:21.486Z,9.50
2018-11-05T07:57:49.415Z,9.50
2018-11-05T08:00:22.114Z,9.60
2018-11-05T08:02:50.981Z,9.60
2018-11-05T08:05:18.941Z,9.60
2018-11-05T08:07:46.401Z,9.70
2018-11-05T08:10:13.413Z,9.80
2018-11-05T08:12:41.118Z,9.90
2018-11-05T08:15:11.028Z,9.80
2018-11-05T08:17:37.990Z,9.70
2018-11-05T08:20:05.120Z,9.80
2018-11-05T08:22:32.077Z,9.80
2018-11-05T08:24:59.079Z,10.00
2018-11-05T08:27:26.032Z,10.50
2018-11-05T08:29:52.983Z,10.80
2018-11-05T08:32:19.929Z,11.10
2018-11-05T08:34:46.888Z,11.10
2018-11-05T08:37:14.175Z,10.90
2018-11-05T08:39:41.135Z,10.80
2018-11-05T08:42:08.342Z,10.60
2018-11-05T08:44:35.285Z,10.80
2018-11-05T08:47:02.233Z,11.20
2018-11-05T08:49:29.182Z,11.70
2018-11-05T08:51:56.331Z,12.00
2018-11-05T08:54:23.099Z,12.10
2018-11-05T08:56:50.057Z,12.20
2018-11-05T08:59:17.002Z,11.90
2018-11-05T09:01:43.984Z,11.60
2018-11-05T09:04:10.940Z,11.40
2018-11-05T09:06:37.897Z,11.30
2018-11-05T09:09:06.505Z,11.30
2018-11-05T09:11:33.835Z,11.10
2018-11-05T09:14:00.393Z,11.10
2018-11-05T09:16:27.370Z,11.10
2018-11-05T09:18:54.340Z,11.10
2018-11-05T09:21:21.411Z,11.20
2018-11-05T09:23:48.353Z,11.10
2018-11-05T09:26:15.296Z,11.10
2018-11-05T09:28:42.247Z,11.10
2018-11-05T09:31:09.230Z,11.10
2018-11-05T09:33:36.157Z,11.20
2018-11-05T09:36:03.152Z,11.20
2018-11-05T09:38:30.287Z,11.20
2018-11-05T09:40:57.237Z,11.30
2018-11-05T09:43:24.814Z,11.30
2018-11-05T09:45:51.786Z,11.30
2018-11-05T09:48:18.728Z,11.50
2018-11-05T09:50:45.689Z,11.60
2018-11-05T09:53:12.636Z,11.70
2018-11-05T09:55:39.623Z,11.70
2018-11-05T09:58:06.502Z,11.70
2018-11-05T10:00:33.449Z,11.70
2018-11-05T10:03:06.337Z,11.60
2018-11-05T10:05:33.261Z,11.60
2018-11-05T10:08:00.122Z,11.50
2018-11-05T10:10:27.095Z,11.60
2018-11-05T10:12:53.997Z,11.60
2018-11-05T10:15:20.954Z,11.70
2018-11-05T10:17:47.893Z,11.70
2018-11-05T10:20:16.722Z,11.70
2018-11-05T10:22:44.120Z,11.70
2018-11-05T10:25:11.867Z,11.60
2018-11-05T10:27:38.765Z,11.70
2018-11-05T10:30:08.803Z,11.60
2018-11-05T10:32:35.769Z,11.60
2018-11-05T10:35:02.717Z,11.70
2018-11-05T10:37:29.697Z,11.70
2018-11-05T10:39:56.648Z,11.70
2018-11-05T10:42:23.611Z,11.80
2018-11-05T10:44:50.969Z,11.80
2018-11-05T10:47:17.893Z,11.90
2018-11-05T10:49:44.831Z,11.90
2018-11-05T10:52:12.092Z,12.10
2018-11-05T10:54:38.754Z,12.10
2018-11-05T10:57:05.705Z,12.30
2018-11-05T10:59:32.695Z,12.70
2018-11-05T11:02:05.439Z,13.00
2018-11-05T11:04:33.900Z,13.30
2018-11-05T11:07:01.722Z,13.50
2018-11-05T11:09:28.710Z,13.70
2018-11-05T11:11:56.288Z,14.10
2018-11-05T11:14:23.245Z,14.30
2018-11-05T11:16:50.192Z,14.40
2018-11-05T11:19:17.150Z,14.50
2018-11-05T11:21:44.090Z,15.00
2018-11-05T11:24:11.051Z,15.20
2018-11-05T11:26:38.041Z,15.10
2018-11-05T11:29:05.094Z,15.00
2018-11-05T11:31:32.011Z,14.90
2018-11-05T11:33:58.979Z,14.70
2018-11-05T11:36:26.059Z,14.60
2018-11-05T11:38:52.942Z,14.30
2018-11-05T11:41:19.938Z,14.20
2018-11-05T11:43:46.874Z,14.20
2018-11-05T11:46:14.279Z,14.20
2018-11-05T11:48:41.248Z,14.10
2018-11-05T11:51:08.188Z,14.10
2018-11-05T11:53:35.240Z,14.20
2018-11-05T11:56:02.077Z,14.20
2018-11-05T11:58:29.027Z,14.30
2018-11-05T12:00:55.971Z,14.40
2018-11-05T12:03:22.974Z,14.40
2018-11-05T12:05:49.884Z,14.50
2018-11-05T12:08:16.830Z,14.90
2018-11-05T12:10:43.804Z,14.80
2018-11-05T12:13:10.742Z,14.50
2018-11-05T12:15:37.664Z,14.40
2018-11-05T12:18:04.665Z,14.50
2018-11-05T12:20:31.631Z,14.40
2018-11-05T12:22:58.573Z,14.20
2018-11-05T12:25:25.543Z,14.10
2018-11-05T12:27:52.501Z,14.10
2018-11-05T12:30:21.733Z,14.20
2018-11-05T12:32:49.522Z,14.10
2018-11-05T12:35:16.486Z,14.30
2018-11-05T12:37:44.724Z,14.40
2018-11-05T12:40:13.541Z,14.70
2018-11-05T12:42:40.671Z,14.90
2018-11-05T12:45:07.827Z,15.00
2018-11-05T12:47:34.950Z,15.30
2018-11-05T12:50:01.891Z,15.30
2018-11-05T12:52:28.821Z,15.30
2018-11-05T12:54:55.843Z,15.30
2018-11-05T12:57:22.785Z,15.20
2018-11-05T12:59:49.778Z,15.20
2018-11-05T13:02:16.741Z,15.10
2018-11-05T13:04:43.683Z,15.00
2018-11-05T13:07:10.636Z,14.80
2018-11-05T13:09:37.594Z,14.80
2018-11-05T13:12:04.522Z,14.60
2018-11-05T13:14:31.477Z,14.60
2018-11-05T13:16:58.447Z,14.70
2018-11-05T13:19:25.379Z,14.80
2018-11-05T13:21:52.319Z,15.00
2018-11-05T13:24:19.310Z,15.10
2018-11-05T13:26:46.258Z,15.10
2018-11-05T13:29:13.206Z,15.10
2018-11-05T13:31:40.154Z,15.20
2018-11-05T13:34:07.118Z,15.10
2018-11-05T13:36:34.189Z,15.20
2018-11-05T13:39:01.025Z,15.20
2018-11-05T13:41:27.982Z,15.20
2018-11-05T13:43:54.937Z,15.30
2018-11-05T13:46:22.362Z,15.30
2018-11-05T13:48:51.143Z,15.20
2018-11-05T13:51:17.360Z,15.20
2018-11-05T13:53:44.365Z,15.20
2018-11-05T13:56:11.299Z,15.20
2018-11-05T13:58:38.283Z,15.20
2018-11-05T14:01:05.211Z,15.10
2018-11-05T14:03:32.139Z,15.20
2018-11-05T14:05:59.076Z,15.10
2018-11-05T14:08:26.028Z,15.10
2018-11-05T14:10:53.061Z,15.10
2018-11-05T14:13:19.943Z,15.00
2018-11-05T14:15:46.910Z,15.00
2018-11-05T14:18:13.946Z,15.00
2018-11-05T14:20:40.831Z,15.00
2018-11-05T14:23:07.803Z,15.00
2018-11-05T14:25:34.782Z,15.00
2018-11-05T14:28:02.034Z,14.90
2018-11-05T14:30:28.650Z,14.90
2018-11-05T14:32:55.614Z,14.80
2018-11-05T14:35:22.566Z,14.80
2018-11-05T14:37:49.538Z,14.70
2018-11-05T14:40:17.434Z,14.70
2018-11-05T14:42:44.474Z,14.70
2018-11-05T14:45:13.189Z,14.60
2018-11-05T14:47:41.236Z,14.50
2018-11-05T14:50:10.735Z,14.40
2018-11-05T14:52:37.792Z,14.30
2018-11-05T14:55:06.486Z,14.30
2018-11-05T14:57:33.435Z,14.30
2018-11-05T15:00:00.436Z,14.30
2018-11-05T15:02:33.311Z,14.20
2018-11-05T15:05:00.253Z,14.20
2018-11-05T15:07:27.299Z,14.20
2018-11-05T15:09:54.217Z,14.20
2018-11-05T15:12:21.175Z,14.10
2018-11-05T15:14:48.141Z,14.20
2018-11-05T15:17:15.091Z,14.10
2018-11-05T15:19:42.541Z,14.00
2018-11-05T15:22:08.998Z,13.90
2018-11-05T15:24:35.970Z,13.80
2018-11-05T15:27:03.398Z,13.80
2018-11-05T15:29:30.294Z,13.70
2018-11-05T15:31:57.232Z,13.60
2018-11-05T15:34:24.169Z,13.60
2018-11-05T15:36:51.122Z,13.50
2018-11-05T15:39:18.097Z,13.40
2018-11-05T15:41:45.063Z,13.40
2018-11-05T15:44:12.030Z,13.30
2018-11-05T15:46:38.968Z,13.20
2018-11-05T15:49:05.910Z,13.10
2018-11-05T15:51:33.676Z,13.00
2018-11-05T15:54:00.569Z,13.00
2018-11-05T15:56:28.163Z,13.00
2018-11-05T15:58:55.147Z,12.90
2018-11-05T16:01:22.210Z,12.80
2018-11-05T16:03:49.245Z,12.80
2018-11-05T16:06:16.207Z,12.80
2018-11-05T16:08:43.155Z,12.70
2018-11-05T16:11:10.124Z,12.60
2018-11-05T16:13:37.098Z,12.60
2018-11-05T16:16:04.088Z,12.50
2018-11-05T16:18:31.038Z,12.40
2018-11-05T16:20:58.011Z,12.50
2018-11-05T16:23:24.975Z,12.40
2018-11-05T16:25:52.052Z,12.30
2018-11-05T16:28:18.921Z,12.20
2018-11-05T16:30:45.988Z,12.20
2018-11-05T16:33:12.865Z,12.20
2018-11-05T16:35:39.904Z,12.10
2018-11-05T16:38:06.814Z,12.00
2018-11-05T16:40:33.764Z,12.00
2018-11-05T16:43:00.713Z,12.10
2018-11-05T16:45:27.678Z,12.00
2018-11-05T16:47:54.673Z,11.90
2018-11-05T16:50:23.590Z,11.90
2018-11-05T16:52:51.139Z,11.80
2018-11-05T16:55:18.109Z,11.90
2018-11-05T16:57:45.098Z,11.90
2018-11-05T17:00:12.799Z,11.80
2018-11-05T17:02:39.980Z,11.80
2018-11-05T17:05:06.886Z,11.70
2018-11-05T17:07:33.813Z,11.70
2018-11-05T17:10:00.838Z,11.70
2018-11-05T17:12:27.811Z,11.60
2018-11-05T17:14:54.792Z,11.60
2018-11-05T17:17:21.737Z,11.60
2018-11-05T17:19:48.710Z,11.60
2018-11-05T17:22:15.675Z,11.50
2018-11-05T17:24:42.682Z,11.50
2018-11-05T17:27:09.664Z,11.40
2018-11-05T17:29:36.639Z,11.40
2018-11-05T17:32:03.914Z,11.30
2018-11-05T17:34:30.862Z,11.30
2018-11-05T17:36:57.799Z,11.20
2018-11-05T17:39:24.866Z,11.30
2018-11-05T17:41:51.919Z,11.30
2018-11-05T17:44:18.921Z,11.20
2018-11-05T17:46:45.873Z,11.20
2018-11-05T17:49:13.181Z,11.20
2018-11-05T17:51:40.624Z,11.10
2018-11-05T17:54:08.042Z,11.10
2018-11-05T17:56:34.997Z,11.00
2018-11-05T17:59:01.954Z,11.00
2018-11-05T18:01:28.894Z,11.00
2018-11-05T18:03:55.925Z,10.90
2018-11-05T18:06:25.112Z,10.90
2018-11-05T18:08:51.073Z,10.90
2018-11-05T18:11:18.496Z,10.80
2018-11-05T18:13:45.444Z,10.80
2018-11-05T18:16:12.395Z,10.80
2018-11-05T18:18:39.375Z,10.60
2018-11-05T18:21:06.326Z,10.60
2018-11-05T18:23:33.266Z,10.70
2018-11-05T18:26:00.264Z,10.60
2018-11-05T18:28:27.207Z,10.60
2018-11-05T18:30:54.205Z,10.60
2018-11-05T18:33:21.119Z,10.60
2018-11-05T18:35:48.058Z,10.50
2018-11-05T18:38:15.038Z,10.50
2018-11-05T18:40:41.998Z,10.50
2018-11-05T18:43:09.146Z,10.50
2018-11-05T18:45:35.963Z,10.40
2018-11-05T18:48:02.898Z,10.40
2018-11-05T18:50:29.854Z,10.50
2018-11-05T18:52:56.845Z,10.60
2018-11-05T18:55:24.169Z,10.50
2018-11-05T18:57:51.113Z,10.50
2018-11-05T19:00:22.964Z,10.40
2018-11-05T19:02:50.857Z,10.40
2018-11-05T19:05:18.380Z,10.30
2018-11-05T19:07:45.458Z,10.20
2018-11-05T19:10:12.478Z,10.20
2018-11-05T19:12:39.456Z,10.20
2018-11-05T19:15:07.805Z,10.20
2018-11-05T19:17:34.790Z,10.20
2018-11-05T19:20:01.736Z,10.10
2018-11-05T19:22:28.700Z,10.10
2018-11-05T19:24:55.654Z,10.10
2018-11-05T19:27:22.609Z,10.00
2018-11-05T19:29:49.553Z,10.00
2018-11-05T19:32:16.498Z,9.90
2018-11-05T19:34:43.443Z,9.90
2018-11-05T19:37:10.388Z,9.90
2018-11-05T19:39:37.382Z,9.80
2018-11-05T19:42:04.538Z,9.80
2018-11-05T19:44:31.434Z,9.80
2018-11-05T19:46:58.421Z,9.80
2018-11-05T19:49:25.388Z,9.80
2018-11-05T19:51:52.330Z,9.90
2018-11-05T19:54:19.309Z,9.90
2018-11-05T19:56:46.605Z,10.00
2018-11-05T19:59:13.537Z,10.00
2018-11-05T20:01:40.501Z,10.10
2018-11-05T20:04:07.496Z,10.10
2018-11-05T20:06:34.433Z,10.20
2018-11-05T20:09:01.407Z,10.30
2018-11-05T20:11:28.346Z,10.30
2018-11-05T20:13:55.311Z,10.40
2018-11-05T20:16:22.282Z,10.40
2018-11-05T20:18:49.298Z,10.30
2018-11-05T20:21:16.610Z,10.30
2018-11-05T20:23:43.568Z,10.40
2018-11-05T20:26:10.534Z,10.40
2018-11-05T20:28:37.552Z,10.20
2018-11-05T20:31:04.972Z,10.00
2018-11-05T20:33:31.903Z,9.90
2018-11-05T20:35:58.808Z,9.80
2018-11-05T20:38:25.810Z,9.70
2018-11-05T20:40:52.907Z,9.60
2018-11-05T20:43:19.849Z,9.60
2018-11-05T20:45:46.815Z,9.60
2018-11-05T20:48:13.827Z,9.50
2018-11-05T20:50:40.888Z,9.40
2018-11-05T20:53:07.854Z,9.30
2018-11-05T20:55:34.793Z,9.30
2018-11-05T20:58:01.959Z,9.20
2018-11-05T21:00:28.955Z,9.20
2018-11-05T21:02:55.909Z,9.20
2018-11-05T21:05:22.849Z,9.10
2018-11-05T21:07:49.806Z,9.10
2018-11-05T21:10:16.767Z,9.10
2018-11-05T21:12:44.147Z,9.10
2018-11-05T21:15:15.270Z,9.10
2018-11-05T21:17:43.104Z,9.10
2018-11-05T21:20:10.118Z,9.00
2018-11-05T21:22:37.133Z,9.00
2018-11-05T21:25:04.907Z,9.00
2018-11-05T21:27:31.853Z,9.00
2018-11-05T21:29:58.797Z,8.90
2018-11-05T21:32:25.761Z,8.80
2018-11-05T21:34:52.835Z,8.90
2018-11-05T21:37:19.787Z,8.90
2018-11-05T21:39:46.765Z,8.80
2018-11-05T21:42:13.743Z,8.80
2018-11-05T21:44:40.774Z,8.80
2018-11-05T21:47:07.757Z,8.70
2018-11-05T21:49:34.792Z,8.70
2018-11-05T21:52:01.836Z,8.80
2018-11-05T21:54:28.869Z,8.70
2018-11-05T21:56:55.759Z,8.70
2018-11-05T21:59:23.091Z,8.60
2018-11-05T22:01:50.037Z,8.60
2018-11-05T22:04:16.998Z,8.60
2018-11-05T22:06:43.966Z,8.50
2018-11-05T22:09:10.935Z,8.40
2018-11-05T22:11:37.873Z,8.40
2018-11-05T22:14:04.880Z,8.30
2018-11-05T22:16:31.823Z,8.30
2018-11-05T22:18:58.790Z,8.40
2018-11-05T22:21:25.760Z,8.50
2018-11-05T22:23:52.710Z,8.70
2018-11-05T22:26:19.706Z,8.70
2018-11-05T22:28:46.685Z,8.70
2018-11-05T22:31:13.625Z,8.80
2018-11-05T22:33:40.591Z,8.70
2018-11-05T22:36:07.650Z,8.80
2018-11-05T22:38:34.706Z,8.90
2018-11-05T22:41:01.684Z,8.90
2018-11-05T22:43:28.671Z,8.90
2018-11-05T22:45:55.646Z,8.70
2018-11-05T22:48:23.058Z,8.80
2018-11-05T22:50:50.061Z,8.80
2018-11-05T22:53:17.058Z,8.90
2018-11-05T22:55:44.067Z,8.90
2018-11-05T22:58:11.056Z,8.90
2018-11-05T23:00:46.248Z,8.70
2018-11-05T23:03:19.155Z,8.60
2018-11-05T23:05:46.258Z,8.50
2018-11-05T23:08:13.311Z,8.50
2018-11-05T23:10:40.351Z,8.40
2018-11-05T23:13:07.326Z,8.40
2018-11-05T23:15:34.305Z,8.40
2018-11-05T23:18:01.318Z,8.60
2018-11-05T23:20:28.235Z,8.60
2018-11-05T23:22:55.239Z,8.70
2018-11-05T23:25:22.264Z,8.70
2018-11-05T23:27:49.191Z,8.70
2018-11-05T23:30:16.187Z,8.70
2018-11-05T23:32:43.262Z,8.50
2018-11-05T23:35:10.859Z,8.50
2018-11-05T23:37:38.939Z,8.40
2018-11-05T23:40:06.514Z,8.40
2018-11-05T23:42:33.532Z,8.40
2018-11-05T23:45:00.550Z,8.20
2018-11-05T23:47:28.373Z,8.20
2018-11-05T23:49:55.729Z,8.30
2018-11-05T23:52:23.256Z,8.30
2018-11-05T23:54:50.231Z,8.40
2018-11-05T23:57:17.165Z,8.40
2018-11-05T23:59:44.098Z,8.30
